Time;durP1;ratioP1;P1;durP2;ratioP2;P2;SDS_P1;SDS_P2;PMS_P1;PMS_P2;Temp;Humidity;BMP_temperature;BMP_pressure;BME280_temperature;BME280_humidity;BME280_pressure;Samples;Min_cycle;Max_cycle;Signal;HPM_P1;HPM_P2
2023/09/04 00:00:27;;;;;;;0.40;0.40;;;14.20;99.90;;;;;;5096674;28;20379;-78
2023/09/04 00:02:53;;;;;;;0.35;0.35;;;14.20;99.90;;;;;;5096595;28;20464;-78
2023/09/04 00:05:18;;;;;;;0.50;0.50;;;14.20;99.90;;;;;;5096522;28;20483;-78
2023/09/04 00:07:45;;;;;;;0.50;0.50;;;14.20;99.90;;;;;;5096183;28;20126;-78
2023/09/04 00:10:12;;;;;;;0.80;0.68;;;14.10;99.90;;;;;;5096347;28;20135;-78
2023/09/04 00:12:38;;;;;;;0.40;0.38;;;14.10;99.90;;;;;;5096316;28;20101;-78
2023/09/04 00:15:04;;;;;;;0.40;0.40;;;14.00;99.90;;;;;;5096237;28;20036;-78
2023/09/04 00:17:30;;;;;;;0.73;0.65;;;14.00;99.90;;;;;;5096234;28;20040;-78
2023/09/04 00:19:56;;;;;;;0.37;0.37;;;14.00;99.90;;;;;;5096195;28;20353;-78
2023/09/04 00:22:22;;;;;;;0.70;0.70;;;13.90;99.90;;;;;;5096087;28;20044;-78
2023/09/04 00:24:48;;;;;;;0.40;0.40;;;13.90;99.90;;;;;;5096103;28;20471;-78
2023/09/04 00:27:14;;;;;;;0.40;0.40;;;13.90;99.90;;;;;;5096076;28;20096;-78
2023/09/04 00:29:40;;;;;;;0.33;0.33;;;13.90;99.90;;;;;;5096380;28;20036;-78
2023/09/04 00:32:08;;;;;;;0.40;0.40;;;13.90;99.90;;;;;;5096103;28;20525;-78
2023/09/04 00:34:34;;;;;;;0.40;0.40;;;13.80;99.90;;;;;;5095840;28;20039;-78
2023/09/04 00:36:59;;;;;;;0.33;0.33;;;14.00;99.90;;;;;;5094656;28;20040;-78
2023/09/04 00:39:25;;;;;;;0.60;0.60;;;13.80;99.90;;;;;;5096631;28;20036;-78
2023/09/04 00:41:51;;;;;;;0.40;0.40;;;13.80;99.90;;;;;;5095520;28;20102;-78
2023/09/04 00:44:17;;;;;;;0.40;0.40;;;13.80;99.90;;;;;;5094375;28;20376;-78
2023/09/04 00:46:43;;;;;;;2.15;0.60;;;13.70;99.90;;;;;;5095682;28;20036;-78
2023/09/04 00:49:14;;;;;;;0.40;0.40;;;13.70;99.90;;;;;;5096006;28;20126;-78
2023/09/04 00:51:40;;;;;;;0.77;0.75;;;13.70;99.90;;;;;;5095629;28;20040;-78
2023/09/04 00:54:07;;;;;;;0.30;0.30;;;13.60;99.90;;;;;;5096016;28;20035;-78
2023/09/04 00:56:34;;;;;;;0.40;0.40;;;13.60;99.90;;;;;;5095328;28;20040;-78
2023/09/04 00:58:59;;;;;;;0.43;0.43;;;13.60;99.90;;;;;;5095464;28;20039;-78
2023/09/04 01:01:26;;;;;;;0.43;0.43;;;13.60;99.90;;;;;;5095588;28;20043;-78
2023/09/04 01:03:52;;;;;;;;;;;13.60;99.90;;;;;;5095880;28;20441;-78
2023/09/04 01:06:18;;;;;;;0.50;0.50;;;13.50;99.90;;;;;;5095233;28;20018;-78
2023/09/04 01:08:43;;;;;;;0.80;0.80;;;13.50;99.90;;;;;;5095112;28;20063;-78
2023/09/04 01:11:36;;;;;;;0.30;0.30;;;13.40;99.90;;;;;;5095518;28;20044;-78
2023/09/04 01:14:09;;;;;;;0.68;0.68;;;13.40;99.90;;;;;;5089152;28;20048;-78
2023/09/04 01:16:35;;;;;;;0.38;0.38;;;13.30;99.90;;;;;;5095075;28;20039;-78
2023/09/04 01:19:01;;;;;;;0.40;0.40;;;13.30;99.90;;;;;;5095919;28;20054;-78
2023/09/04 01:21:27;;;;;;;0.30;0.30;;;13.30;99.90;;;;;;5095058;28;20118;-78
2023/09/04 01:23:53;;;;;;;0.40;0.38;;;13.20;99.90;;;;;;5095076;28;20040;-78
2023/09/04 01:26:26;;;;;;;0.43;0.40;;;13.20;99.90;;;;;;5095115;28;20044;-78
2023/09/04 01:29:15;;;;;;;0.47;0.47;;;13.20;99.90;;;;;;5094931;28;20115;-77
2023/09/04 01:31:54;;;;;;;1.38;0.80;;;13.20;99.90;;;;;;5094151;28;20161;-78
2023/09/04 01:34:25;;;;;;;0.52;0.52;;;13.20;99.90;;;;;;5095074;28;20549;-78
2023/09/04 01:36:57;;;;;;;0.50;0.50;;;13.10;99.90;;;;;;5094990;28;20044;-78
2023/09/04 01:39:23;;;;;;;5.18;0.65;;;13.10;99.90;;;;;;5094390;28;20047;-78
2023/09/04 01:41:50;;;;;;;0.50;0.50;;;13.00;99.90;;;;;;5093541;28;20390;-78
2023/09/04 01:44:15;;;;;;;0.40;0.40;;;13.00;99.90;;;;;;5094767;28;20173;-78
2023/09/04 01:46:41;;;;;;;0.50;0.50;;;13.00;99.90;;;;;;5094460;28;20481;-78
2023/09/04 01:49:08;;;;;;;0.40;0.40;;;12.90;99.90;;;;;;5094184;28;20572;-78
2023/09/04 01:51:33;;;;;;;0.40;0.40;;;12.90;99.90;;;;;;5094443;28;20165;-78
2023/09/04 01:53:59;;;;;;;0.57;0.57;;;13.30;99.90;;;;;;5094437;28;20115;-78
2023/09/04 01:56:25;;;;;;;0.43;0.43;;;12.90;99.90;;;;;;5094158;28;20036;-78
2023/09/04 01:58:50;;;;;;;0.55;0.55;;;12.80;99.90;;;;;;5095044;28;20040;-78
2023/09/04 02:01:16;;;;;;;0.35;0.35;;;12.70;99.90;;;;;;5094548;28;20071;-78
2023/09/04 02:03:56;;;;;;;0.40;0.40;;;12.60;99.90;;;;;;5094291;28;20150;-78
2023/09/04 02:06:23;;;;;;;0.50;0.50;;;12.60;99.90;;;;;;5094160;28;20468;-78
2023/09/04 02:08:48;;;;;;;0.30;0.30;;;12.50;99.90;;;;;;5092848;28;20056;-78
2023/09/04 02:11:14;;;;;;;1.37;0.43;;;12.50;99.90;;;;;;5094116;28;20040;-78
2023/09/04 02:13:40;;;;;;;0.40;0.40;;;12.50;99.90;;;;;;5094092;28;20040;-78
2023/09/04 02:16:05;;;;;;;0.40;0.40;;;12.50;99.90;;;;;;5093937;28;20498;-78
2023/09/04 02:18:31;;;;;;;0.68;0.63;;;12.60;99.90;;;;;;5093940;28;20036;-78
2023/09/04 02:20:59;;;;;;;0.40;0.40;;;12.60;99.90;;;;;;5093801;28;20040;-78
2023/09/04 02:23:25;;;;;;;0.63;0.60;;;12.60;99.90;;;;;;5093844;28;20086;-78
2023/09/04 02:25:51;;;;;;;0.60;0.60;;;12.60;99.90;;;;;;5094826;28;20067;-78
2023/09/04 02:28:16;;;;;;;0.70;0.70;;;12.60;99.90;;;;;;5093837;28;20042;-78
2023/09/04 02:30:42;;;;;;;0.40;0.40;;;12.60;99.90;;;;;;5094139;28;20040;-78
2023/09/04 02:33:08;;;;;;;0.40;0.40;;;12.60;99.90;;;;;;5093797;28;20040;-78
2023/09/04 02:35:34;;;;;;;0.55;0.55;;;12.60;99.90;;;;;;5093735;28;20036;-78
2023/09/04 02:38:00;;;;;;;0.50;0.50;;;12.50;99.90;;;;;;5093838;28;20040;-78
2023/09/04 02:40:26;;;;;;;0.73;0.73;;;12.50;99.90;;;;;;5094264;28;20356;-78
2023/09/04 02:42:51;;;;;;;0.77;0.75;;;12.40;99.90;;;;;;5093806;28;20043;-80
2023/09/04 02:45:17;;;;;;;0.40;0.40;;;12.40;99.90;;;;;;5094116;28;20032;-79
2023/09/04 02:47:43;;;;;;;1.65;1.05;;;12.40;99.90;;;;;;5093872;28;20461;-79
2023/09/04 02:50:09;;;;;;;0.47;0.47;;;12.40;99.90;;;;;;5094015;28;20040;-79
2023/09/04 02:52:35;;;;;;;0.40;0.40;;;12.40;99.90;;;;;;5092659;28;20043;-79
2023/09/04 02:55:02;;;;;;;0.50;0.50;;;12.40;99.90;;;;;;5093499;28;20036;-79
2023/09/04 02:57:29;;;;;;;0.40;0.40;;;12.40;99.90;;;;;;5093614;28;20046;-79
2023/09/04 02:59:55;;;;;;;0.65;0.55;;;12.30;99.90;;;;;;5093559;28;20036;-79
2023/09/04 03:02:22;;;;;;;0.50;0.50;;;12.30;99.90;;;;;;5093277;28;20555;-79
2023/09/04 03:04:53;;;;;;;0.40;0.40;;;12.20;99.90;;;;;;5093620;28;20431;-79
2023/09/04 03:07:18;;;;;;;0.40;0.40;;;12.20;99.90;;;;;;5097138;28;20517;-79
2023/09/04 03:09:44;;;;;;;0.37;0.37;;;12.30;99.90;;;;;;5098026;28;20044;-79
2023/09/04 03:12:09;;;;;;;0.40;0.40;;;12.60;99.90;;;;;;5097885;28;20456;-78
2023/09/04 03:14:35;;;;;;;0.40;0.40;;;12.20;99.90;;;;;;5097434;28;20044;-78
2023/09/04 03:17:04;;;;;;;0.52;0.52;;;12.20;99.90;;;;;;5097402;28;20036;-79
2023/09/04 03:19:30;;;;;;;0.50;0.50;;;12.10;99.90;;;;;;5097366;28;20083;-79
2023/09/04 03:21:55;;;;;;;0.50;0.50;;;12.10;99.90;;;;;;5097200;28;20080;-79
2023/09/04 03:24:23;;;;;;;0.50;0.50;;;12.10;99.90;;;;;;5097661;28;20039;-79
2023/09/04 03:26:49;;;;;;;0.40;0.40;;;12.10;99.90;;;;;;5097570;28;20105;-78
2023/09/04 03:29:15;;;;;;;0.50;0.50;;;12.10;99.90;;;;;;5097492;28;20484;-78
2023/09/04 03:31:41;;;;;;;0.40;0.40;;;12.10;99.90;;;;;;5097105;28;20036;-79
2023/09/04 03:34:07;;;;;;;0.73;0.40;;;12.10;99.90;;;;;;5097245;28;20078;-79
2023/09/04 03:36:33;;;;;;;0.50;0.50;;;12.10;99.90;;;;;;5096758;28;20852;-79
2023/09/04 03:38:58;;;;;;;0.53;0.53;;;12.10;99.90;;;;;;5096999;28;20052;-79
2023/09/04 03:41:25;;;;;;;0.60;0.60;;;12.00;99.90;;;;;;5096954;28;20047;-79
2023/09/04 03:43:50;;;;;;;0.37;0.37;;;12.10;99.90;;;;;;5095955;28;20039;-79
2023/09/04 03:46:16;;;;;;;0.60;0.60;;;12.00;99.90;;;;;;5096888;28;20297;-79
2023/09/04 03:48:42;;;;;;;0.52;0.52;;;12.00;99.90;;;;;;5096798;28;20071;-79
2023/09/04 03:51:07;;;;;;;0.40;0.40;;;11.90;99.90;;;;;;5096620;28;20424;-79
2023/09/04 03:53:33;;;;;;;0.35;0.35;;;11.90;99.90;;;;;;5096901;28;20122;-79
2023/09/04 03:56:06;;;;;;;0.43;0.43;;;11.80;99.90;;;;;;5096601;28;20460;-79
2023/09/04 03:58:31;;;;;;;0.40;0.40;;;11.80;99.90;;;;;;5096616;28;20067;-79
2023/09/04 04:00:58;;;;;;;0.40;0.40;;;11.80;99.90;;;;;;5096507;28;20082;-79
2023/09/04 04:03:24;;;;;;;0.50;0.50;;;11.70;99.90;;;;;;5096674;28;20036;-79
2023/09/04 04:05:49;;;;;;;0.40;0.40;;;11.80;99.90;;;;;;5096383;28;20085;-79
2023/09/04 04:08:15;;;;;;;0.50;0.50;;;11.90;99.90;;;;;;5096437;28;20044;-79
2023/09/04 04:10:41;;;;;;;0.85;0.73;;;11.70;99.90;;;;;;5096771;28;20040;-79
2023/09/04 04:13:06;;;;;;;0.57;0.57;;;11.70;99.90;;;;;;5096628;28;20032;-79
2023/09/04 04:15:32;;;;;;;0.60;0.60;;;11.70;99.90;;;;;;5096263;28;20044;-79
2023/09/04 04:17:57;;;;;;;0.40;0.40;;;11.70;99.90;;;;;;5095073;28;20040;-79
2023/09/04 04:20:23;;;;;;;0.45;0.45;;;11.70;99.90;;;;;;5096125;28;20044;-79
2023/09/04 04:22:49;;;;;;;0.40;0.40;;;11.70;99.90;;;;;;5096116;28;20047;-79
2023/09/04 04:25:14;;;;;;;1.77;0.93;;;11.90;99.90;;;;;;5096088;28;20028;-79
2023/09/04 04:27:41;;;;;;;0.40;0.40;;;11.70;99.90;;;;;;5095998;28;20036;-79
2023/09/04 04:30:08;;;;;;;0.50;0.50;;;11.80;99.90;;;;;;5095933;28;20051;-79
2023/09/04 04:32:34;;;;;;;;;;;11.60;99.90;;;;;;5096275;28;20121;-78
2023/09/04 04:35:00;;;;;;;0.68;0.60;;;11.50;99.90;;;;;;5095862;28;19976;-79
2023/09/04 04:37:25;;;;;;;0.50;0.50;;;11.50;99.90;;;;;;5095784;28;20043;-78
2023/09/04 04:39:52;;;;;;;0.50;0.50;;;11.50;99.90;;;;;;5095690;28;20040;-78
2023/09/04 04:42:17;;;;;;;0.47;0.47;;;11.50;99.90;;;;;;5095825;28;20375;-79
2023/09/04 04:44:43;;;;;;;0.40;0.40;;;11.50;99.90;;;;;;5095770;28;20070;-79
2023/09/04 04:47:09;;;;;;;0.60;0.55;;;11.50;99.90;;;;;;5095572;28;20485;-79
2023/09/04 04:49:35;;;;;;;0.50;0.50;;;11.50;99.90;;;;;;5095654;28;20104;-78
2023/09/04 04:52:00;;;;;;;0.60;0.60;;;11.60;99.90;;;;;;5095531;28;20460;-79
2023/09/04 04:54:26;;;;;;;0.50;0.50;;;11.40;99.90;;;;;;5095465;28;20044;-78
2023/09/04 04:56:52;;;;;;;0.50;0.50;;;11.40;99.90;;;;;;5095679;28;20054;-78
2023/09/04 04:59:18;;;;;;;0.70;0.70;;;11.30;99.90;;;;;;5095402;28;20051;-78
2023/09/04 05:01:43;;;;;;;0.50;0.50;;;11.20;99.90;;;;;;5095329;28;20090;-79
2023/09/04 05:04:09;;;;;;;0.33;0.33;;;11.20;99.90;;;;;;5095315;28;20119;-78
2023/09/04 05:06:35;;;;;;;0.55;0.55;;;11.30;99.90;;;;;;5095360;28;20508;-78
2023/09/04 05:09:00;;;;;;;0.50;0.50;;;11.30;99.90;;;;;;5095250;28;20044;-78
2023/09/04 05:11:26;;;;;;;0.60;0.60;;;11.30;99.90;;;;;;5094969;28;20047;-78
2023/09/04 05:13:51;;;;;;;0.50;0.50;;;11.30;99.90;;;;;;5095161;28;20421;-78
2023/09/04 05:16:17;;;;;;;0.60;0.60;;;11.30;99.90;;;;;;5095084;28;20039;-78
2023/09/04 05:18:43;;;;;;;0.40;0.40;;;11.30;99.90;;;;;;5095071;28;20048;-79
2023/09/04 05:21:08;;;;;;;0.70;0.70;;;11.30;99.90;;;;;;5094782;28;20357;-78
2023/09/04 05:23:34;;;;;;;0.50;0.50;;;11.40;99.90;;;;;;5095280;28;20058;-78
2023/09/04 05:26:00;;;;;;;0.70;0.70;;;11.40;99.90;;;;;;5095291;28;20036;-78
2023/09/04 05:28:26;;;;;;;0.50;0.50;;;11.40;99.90;;;;;;5094533;28;20050;-78
2023/09/04 05:30:51;;;;;;;0.40;0.40;;;11.50;99.90;;;;;;5095030;28;20036;-78
2023/09/04 05:33:17;;;;;;;0.40;0.40;;;11.50;99.90;;;;;;5094781;28;20040;-79
2023/09/04 05:35:43;;;;;;;0.50;0.50;;;11.60;99.90;;;;;;5094685;28;20032;-79
2023/09/04 05:38:08;;;;;;;0.70;0.60;;;11.60;99.90;;;;;;5094736;28;20043;-79
2023/09/04 05:40:34;;;;;;;0.82;0.70;;;11.60;99.90;;;;;;5094914;28;20039;-79
2023/09/04 05:43:00;;;;;;;0.40;0.40;;;11.60;99.90;;;;;;5094956;28;20039;-79
2023/09/04 05:45:25;;;;;;;0.70;0.70;;;11.60;99.90;;;;;;5094513;28;20036;-78
2023/09/04 05:47:51;;;;;;;0.50;0.50;;;11.60;99.90;;;;;;5094648;28;20057;-78
2023/09/04 05:50:17;;;;;;;0.50;0.50;;;11.60;99.90;;;;;;5094458;28;20465;-79
2023/09/04 05:52:43;;;;;;;1.33;0.65;;;11.70;99.90;;;;;;5094075;28;20177;-78
2023/09/04 05:55:08;;;;;;;0.60;0.60;;;11.70;99.90;;;;;;5094421;28;20036;-78
2023/09/04 05:57:35;;;;;;;0.52;0.52;;;11.80;99.90;;;;;;5094503;28;20431;-78
2023/09/04 06:00:03;;;;;;;0.50;0.50;;;11.90;99.90;;;;;;5093468;28;20047;-78
2023/09/04 06:02:29;;;;;;;0.60;0.60;;;11.90;99.90;;;;;;5094239;28;20044;-78
2023/09/04 06:04:54;;;;;;;0.50;0.50;;;12.10;99.90;;;;;;5094344;28;20036;-78
2023/09/04 06:07:20;;;;;;;0.40;0.40;;;12.10;99.90;;;;;;5093952;28;20047;-78
2023/09/04 06:09:45;;;;;;;0.50;0.50;;;12.10;99.90;;;;;;5094233;28;20127;-78
2023/09/04 06:12:11;;;;;;;0.70;0.70;;;12.20;99.90;;;;;;5094088;28;20447;-78
2023/09/04 06:14:40;;;;;;;0.60;0.60;;;12.30;99.90;;;;;;5094265;28;20039;-78
2023/09/04 06:17:07;;;;;;;0.47;0.47;;;12.30;99.90;;;;;;5094146;28;20108;-78
2023/09/04 06:19:32;;;;;;;0.63;0.63;;;12.40;99.90;;;;;;5094061;28;20047;-78
2023/09/04 06:21:58;;;;;;;0.52;0.52;;;12.60;99.90;;;;;;5093950;28;20061;-78
2023/09/04 06:24:24;;;;;;;0.55;0.55;;;12.70;99.90;;;;;;5092629;28;20044;-78
2023/09/04 06:26:50;;;;;;;0.60;0.60;;;12.80;99.90;;;;;;5093976;28;20418;-78
2023/09/04 06:29:20;;;;;;;0.60;0.60;;;12.90;99.90;;;;;;5093647;28;20422;-78
2023/09/04 06:31:45;;;;;;;0.47;0.47;;;13.00;99.90;;;;;;5093975;28;20367;-78
2023/09/04 06:34:12;;;;;;;0.50;0.50;;;13.10;99.90;;;;;;5093885;28;20123;-78
2023/09/04 06:36:38;;;;;;;0.70;0.70;;;13.30;99.90;;;;;;5093653;28;20082;-79
2023/09/04 06:39:04;;;;;;;0.50;0.50;;;13.50;99.90;;;;;;5094141;28;20421;-78
2023/09/04 06:41:31;;;;;;;0.50;0.50;;;13.60;99.90;;;;;;5093288;28;20055;-79
2023/09/04 06:43:57;;;;;;;0.47;0.47;;;13.80;99.90;;;;;;5093943;28;20079;-79
2023/09/04 06:46:23;;;;;;;0.77;0.77;;;13.90;99.90;;;;;;5093751;28;20086;-78
2023/09/04 06:48:49;;;;;;;0.88;0.88;;;14.00;99.90;;;;;;5093790;28;20514;-79
2023/09/04 06:51:16;;;;;;;0.95;0.80;;;14.20;99.90;;;;;;5093543;28;20063;-79
2023/09/04 06:53:42;;;;;;;0.43;0.43;;;14.30;99.90;;;;;;5094063;28;20052;-79
2023/09/04 06:56:07;;;;;;;0.50;0.50;;;14.50;99.90;;;;;;5093550;28;20039;-79
2023/09/04 06:58:33;;;;;;;0.35;0.35;;;14.60;99.90;;;;;;5093669;28;20116;-79
2023/09/04 07:01:02;;;;;;;0.68;0.57;;;14.70;99.90;;;;;;5093811;28;20040;-79
2023/09/04 07:03:28;;;;;;;0.55;0.55;;;14.80;99.90;;;;;;5093527;28;20135;-78
2023/09/04 07:05:53;;;;;;;0.60;0.40;;;14.90;99.90;;;;;;5093779;28;20039;-79
2023/09/04 07:08:19;;;;;;;0.80;0.60;;;15.00;99.90;;;;;;5093222;28;20143;-79
2023/09/04 07:10:46;;;;;;;0.53;0.53;;;15.20;99.90;;;;;;5093546;28;20036;-79
2023/09/04 07:13:12;;;;;;;0.40;0.40;;;15.30;99.90;;;;;;5093472;28;20036;-79
2023/09/04 07:15:38;;;;;;;0.40;0.40;;;15.40;99.90;;;;;;5093406;28;20117;-79
2023/09/04 07:18:03;;;;;;;0.50;0.50;;;15.50;99.90;;;;;;5093402;28;20048;-79
2023/09/04 07:20:29;;;;;;;0.40;0.40;;;15.60;99.90;;;;;;5093078;28;20093;-79
2023/09/04 07:22:55;;;;;;;0.50;0.50;;;15.70;99.90;;;;;;5093433;28;20043;-79
2023/09/04 07:25:21;;;;;;;0.50;0.50;;;15.80;99.90;;;;;;5093381;28;20040;-79
2023/09/04 07:27:47;;;;;;;1.00;0.73;;;15.90;99.90;;;;;;5093299;28;20104;-79
2023/09/04 07:30:13;;;;;;;0.47;0.47;;;15.90;99.90;;;;;;5093340;28;20040;-79
2023/09/04 07:32:38;;;;;;;0.60;0.57;;;16.00;99.90;;;;;;5092935;28;20440;-77
2023/09/04 07:35:05;;;;;;;1.95;1.35;;;16.10;99.90;;;;;;5092921;28;20071;-79
2023/09/04 07:37:30;;;;;;;0.50;0.50;;;16.20;99.90;;;;;;5093122;28;20486;-79
2023/09/04 07:39:56;;;;;;;0.50;0.50;;;16.30;99.90;;;;;;5093165;28;20036;-79
2023/09/04 07:42:23;;;;;;;0.70;0.70;;;16.40;99.90;;;;;;5093127;28;20046;-79
2023/09/04 07:44:49;;;;;;;0.75;0.68;;;16.50;99.90;;;;;;5092896;28;20051;-79
2023/09/04 07:47:15;;;;;;;0.82;0.75;;;16.70;99.90;;;;;;5093242;28;20461;-79
2023/09/04 07:49:40;;;;;;;0.60;0.60;;;16.80;99.90;;;;;;5093435;28;20036;-79
2023/09/04 07:52:06;;;;;;;0.47;0.47;;;16.90;99.90;;;;;;5095248;28;20387;-79
2023/09/04 07:54:31;;;;;;;0.40;0.40;;;17.00;99.90;;;;;;5096643;28;20043;-79
2023/09/04 07:56:59;;;;;;;0.50;0.50;;;17.20;99.90;;;;;;5096832;28;20040;-79
2023/09/04 07:59:25;;;;;;;0.80;0.70;;;17.30;99.90;;;;;;5096655;28;20032;-79
2023/09/04 08:01:50;;;;;;;0.57;0.40;;;17.40;99.90;;;;;;5096345;28;20044;-79
2023/09/04 08:04:16;;;;;;;0.77;0.50;;;17.50;99.90;;;;;;5096485;28;20072;-79
2023/09/04 08:06:42;;;;;;;0.77;0.53;;;17.60;99.90;;;;;;5096516;28;20127;-79
2023/09/04 08:09:07;;;;;;;0.50;0.50;;;17.70;99.90;;;;;;5096925;28;20048;-79
2023/09/04 08:11:35;;;;;;;0.43;0.43;;;17.80;99.90;;;;;;5096502;28;20048;-79
2023/09/04 08:14:00;;;;;;;0.60;0.47;;;17.90;99.90;;;;;;5096547;28;20384;-79
2023/09/04 08:16:26;;;;;;;0.30;0.30;;;18.00;99.90;;;;;;5096181;28;20035;-79
2023/09/04 08:18:52;;;;;;;0.50;0.50;;;18.10;99.90;;;;;;5096208;28;20468;-79
2023/09/04 08:21:17;;;;;;;0.40;0.40;;;18.20;99.90;;;;;;5096242;28;20123;-79
2023/09/04 08:23:43;;;;;;;0.40;0.40;;;18.30;99.90;;;;;;5096206;28;20123;-79
2023/09/04 08:26:12;;;;;;;0.63;0.50;;;18.50;99.90;;;;;;5096602;28;20079;-79
2023/09/04 08:28:38;;;;;;;0.32;0.32;;;18.60;99.90;;;;;;5096133;28;20044;-77
2023/09/04 08:31:04;;;;;;;0.43;0.43;;;18.70;99.90;;;;;;5096019;28;20054;-77
2023/09/04 08:33:30;;;;;;;0.20;0.20;;;18.70;99.90;;;;;;5095880;28;20221;-77
2023/09/04 08:35:56;;;;;;;1.20;0.50;;;18.90;99.90;;;;;;5095855;28;20097;-77
2023/09/04 08:38:22;;;;;;;0.30;0.30;;;19.00;99.90;;;;;;5096027;28;20040;-77
2023/09/04 08:40:47;;;;;;;0.53;0.50;;;19.10;99.90;;;;;;5095849;28;20456;-77
2023/09/04 08:43:16;;;;;;;0.40;0.40;;;19.10;99.90;;;;;;5096036;28;20421;-77
2023/09/04 08:45:43;;;;;;;0.95;0.60;;;19.20;99.90;;;;;;5095429;28;20071;-77
2023/09/04 08:48:10;;;;;;;;;;;19.20;99.90;;;;;;5096021;28;20051;-78
2023/09/04 08:50:36;;;;;;;0.30;0.30;;;19.30;99.90;;;;;;5094387;28;19916;-78
2023/09/04 08:53:03;;;;;;;0.30;0.30;;;19.40;99.90;;;;;;5095645;28;20044;-77
2023/09/04 08:55:29;;;;;;;0.30;0.30;;;19.50;99.90;;;;;;5095541;28;20126;-78
2023/09/04 08:57:55;;;;;;;0.33;0.33;;;19.60;99.90;;;;;;5095621;28;20072;-77
2023/09/04 09:00:21;;;;;;;0.50;0.43;;;19.70;99.90;;;;;;5095498;28;20043;-78
2023/09/04 09:02:47;;;;;;;0.60;0.60;;;19.70;99.90;;;;;;5094926;28;20051;-78
2023/09/04 09:05:15;;;;;;;0.30;0.30;;;19.80;99.90;;;;;;5094838;28;20039;-79
2023/09/04 09:07:41;;;;;;;0.30;0.30;;;19.90;99.90;;;;;;5095203;28;20177;-78
2023/09/04 09:10:10;;;;;;;0.50;0.50;;;19.90;99.90;;;;;;5095069;28;20365;-79
2023/09/04 09:12:36;;;;;;;0.30;0.30;;;20.00;99.90;;;;;;5095118;28;20119;-78
2023/09/04 09:15:01;;;;;;;0.43;0.43;;;20.10;99.90;;;;;;5095140;28;20167;-78
2023/09/04 09:17:28;;;;;;;;;;;20.30;99.90;;;;;;5095561;28;20042;-79
2023/09/04 09:19:54;;;;;;;0.30;0.30;;;20.40;99.90;;;;;;5095079;28;20268;-79
2023/09/04 09:22:21;;;;;;;0.53;0.30;;;20.40;99.90;;;;;;5095070;28;20036;-79
2023/09/04 09:25:00;;;;;;;0.30;0.30;;;20.50;99.90;;;;;;5095176;28;20047;-79
2023/09/04 09:27:32;;;;;;;1.13;0.50;;;20.50;99.90;;;;;;5095005;28;20035;-79
2023/09/04 09:30:02;;;;;;;0.30;0.30;;;20.60;99.90;;;;;;5094880;28;20032;-79
2023/09/04 09:32:32;;;;;;;0.52;0.38;;;20.70;99.90;;;;;;5095237;28;20097;-79
2023/09/04 09:35:00;;;;;;;0.32;0.32;;;20.70;99.90;;;;;;5094665;28;20038;-78
2023/09/04 09:37:29;;;;;;;0.30;0.30;;;20.80;99.90;;;;;;5094794;28;20032;-78
2023/09/04 09:39:55;;;;;;;0.30;0.30;;;20.90;99.90;;;;;;5094643;28;20054;-79
2023/09/04 09:42:21;;;;;;;0.50;0.50;;;21.00;99.90;;;;;;5094650;28;20127;-79
2023/09/04 09:44:47;;;;;;;0.33;0.33;;;21.10;99.90;;;;;;5094314;28;20130;-79
2023/09/04 09:47:13;;;;;;;0.20;0.20;;;21.20;99.90;;;;;;5094475;28;20040;-79
2023/09/04 09:49:43;;;;;;;0.40;0.40;;;21.20;99.90;;;;;;5094782;28;20058;-79
2023/09/04 09:52:10;;;;;;;0.30;0.30;;;21.20;99.90;;;;;;5094325;28;20040;-79
2023/09/04 09:54:39;;;;;;;0.63;0.40;;;21.30;99.90;;;;;;5094364;28;20376;-79
2023/09/04 09:57:07;;;;;;;0.30;0.30;;;21.40;99.90;;;;;;5094455;28;20047;-79
2023/09/04 09:59:35;;;;;;;0.30;0.30;;;21.40;99.90;;;;;;5094296;28;20055;-79
2023/09/04 10:02:03;;;;;;;0.28;0.28;;;21.50;99.90;;;;;;5094362;28;20044;-79
2023/09/04 10:04:33;;;;;;;0.95;0.68;;;21.60;99.90;;;;;;5094233;28;20464;-79
2023/09/04 10:07:03;;;;;;;1.45;0.35;;;21.60;99.90;;;;;;5094132;28;20537;-79
2023/09/04 10:09:34;;;;;;;0.30;0.30;;;21.70;99.90;;;;;;5094140;28;20387;-79
2023/09/04 10:12:08;;;;;;;0.30;0.30;;;21.80;99.90;;;;;;5094460;28;20050;-79
2023/09/04 10:14:40;;;;;;;0.30;0.30;;;21.90;99.90;;;;;;5094024;28;20050;-79
2023/09/04 10:17:12;;;;;;;0.40;0.40;;;21.90;99.90;;;;;;5093924;28;20047;-79
2023/09/04 10:19:40;;;;;;;0.55;0.55;;;22.10;99.90;;;;;;5093877;28;20395;-79
2023/09/04 10:22:17;;;;;;;0.20;0.20;;;22.10;99.90;;;;;;5093935;28;20047;-79
2023/09/04 10:24:55;;;;;;;0.25;0.25;;;22.10;99.90;;;;;;5094409;28;20445;-79
2023/09/04 10:27:25;;;;;;;0.30;0.30;;;22.30;99.90;;;;;;5094323;28;20087;-79
2023/09/04 10:30:07;;;;;;;0.30;0.30;;;22.30;99.90;;;;;;5093990;28;20044;-79
2023/09/04 10:32:36;;;;;;;0.30;0.30;;;22.40;99.90;;;;;;5094149;28;20044;-79
2023/09/04 10:35:02;;;;;;;0.20;0.20;;;22.50;99.90;;;;;;5094252;28;20047;-79
2023/09/04 10:37:30;;;;;;;0.40;0.40;;;22.50;99.90;;;;;;5093583;28;20044;-79
2023/09/04 10:39:57;;;;;;;0.40;0.40;;;22.60;99.90;;;;;;5094186;28;20055;-79
2023/09/04 10:42:27;;;;;;;0.40;0.40;;;22.70;99.90;;;;;;5093740;28;20082;-78
2023/09/04 10:44:53;;;;;;;0.20;0.20;;;22.70;99.90;;;;;;5093852;28;20104;-79
2023/09/04 10:47:20;;;;;;;0.52;0.40;;;22.80;99.90;;;;;;5093884;28;20048;-79
2023/09/04 10:49:47;;;;;;;0.47;0.47;;;22.80;99.90;;;;;;5093617;28;20063;-79
2023/09/04 10:52:13;;;;;;;;;;;22.90;99.90;;;;;;5094069;28;20048;-79
2023/09/04 10:54:40;;;;;;;0.30;0.30;;;22.90;99.90;;;;;;5093596;28;20367;-79
2023/09/04 10:57:08;;;;;;;0.30;0.30;;;23.00;99.90;;;;;;5093596;28;20043;-79
2023/09/04 10:59:59;;;;;;;0.28;0.28;;;23.00;99.90;;;;;;5093721;28;20051;-78
2023/09/04 11:02:27;;;;;;;0.45;0.45;;;23.10;99.90;;;;;;5093576;28;20037;-79
2023/09/04 11:04:54;;;;;;;0.30;0.30;;;23.10;99.90;;;;;;5093842;28;20047;-79
2023/09/04 11:07:19;;;;;;;0.30;0.30;;;23.20;99.90;;;;;;5093415;28;20424;-79
2023/09/04 11:09:45;;;;;;;0.20;0.20;;;23.20;99.90;;;;;;5093593;28;20136;-79
2023/09/04 11:12:18;;;;;;;0.20;0.20;;;23.20;99.90;;;;;;5093606;28;20059;-79
2023/09/04 11:14:45;;;;;;;0.75;0.40;;;23.30;99.90;;;;;;5093193;28;20044;-79
2023/09/04 11:17:14;;;;;;;0.20;0.20;;;23.30;99.90;;;;;;5093421;28;20129;-78
2023/09/04 11:19:39;;;;;;;0.30;0.30;;;23.30;99.90;;;;;;5093738;28;20075;-78
2023/09/04 11:22:05;;;;;;;0.30;0.30;;;23.40;99.90;;;;;;5093422;28;20036;-79
2023/09/04 11:24:31;;;;;;;0.23;0.23;;;23.50;99.90;;;;;;5093429;28;20064;-79
2023/09/04 11:26:56;;;;;;;0.20;0.20;;;23.60;99.90;;;;;;5094836;28;20051;-79
2023/09/04 11:29:22;;;;;;;0.30;0.30;;;23.70;99.90;;;;;;5097271;28;20040;-78
2023/09/04 11:31:47;;;;;;;0.30;0.30;;;23.70;99.90;;;;;;5097223;28;20410;-78
2023/09/04 11:34:21;;;;;;;0.30;0.30;;;23.80;99.90;;;;;;5097133;28;20097;-78
2023/09/04 11:36:47;;;;;;;0.30;0.30;;;23.90;99.90;;;;;;5097127;28;20470;-78
2023/09/04 11:39:13;;;;;;;0.30;0.30;;;23.90;99.90;;;;;;5097091;28;20426;-78
2023/09/04 11:41:39;;;;;;;0.20;0.20;;;24.10;99.90;;;;;;5097051;28;20040;-78
2023/09/04 11:44:06;;;;;;;0.30;0.30;;;24.10;99.90;;;;;;5096936;28;20040;-78
2023/09/04 11:46:36;;;;;;;0.30;0.30;;;24.20;99.90;;;;;;5096883;28;20269;-78
2023/09/04 11:49:03;;;;;;;0.20;0.20;;;24.30;99.90;;;;;;5096966;28;20043;-78
2023/09/04 11:51:33;;;;;;;0.20;0.20;;;24.30;99.90;;;;;;5097077;28;20499;-78
2023/09/04 11:54:02;;;;;;;0.22;0.22;;;24.40;99.90;;;;;;5096803;28;20122;-78
2023/09/04 11:56:29;;;;;;;0.50;0.50;;;24.40;99.90;;;;;;5097026;28;20044;-78
2023/09/04 11:58:54;;;;;;;0.20;0.20;;;24.60;99.90;;;;;;5096643;28;20040;-78
2023/09/04 12:01:20;;;;;;;0.30;0.30;;;24.50;99.90;;;;;;5096660;28;20048;-78
2023/09/04 12:03:46;;;;;;;0.30;0.30;;;24.70;99.90;;;;;;5097106;28;20515;-78
2023/09/04 12:06:11;;;;;;;0.20;0.20;;;24.70;99.90;;;;;;5096622;28;20044;-78
2023/09/04 12:08:37;;;;;;;0.40;0.40;;;24.80;99.90;;;;;;5096675;28;20067;-78
2023/09/04 12:11:03;;;;;;;0.40;0.40;;;24.80;99.90;;;;;;5096280;28;20124;-78
2023/09/04 12:13:28;;;;;;;0.40;0.40;;;24.90;99.90;;;;;;5096570;28;20047;-78
2023/09/04 12:16:05;;;;;;;0.43;0.30;;;25.00;99.90;;;;;;5096755;28;20050;-78
2023/09/04 12:18:37;;;;;;;0.20;0.20;;;25.10;99.90;;;;;;5096646;28;20040;-78
2023/09/04 12:21:08;;;;;;;0.40;0.40;;;25.10;99.90;;;;;;5096143;28;20084;-78
2023/09/04 12:23:46;;;;;;;0.30;0.30;;;25.20;99.90;;;;;;5096201;28;20044;-78
2023/09/04 12:26:15;;;;;;;0.20;0.20;;;25.20;99.90;;;;;;5096519;28;20131;-79
2023/09/04 12:28:41;;;;;;;0.20;0.20;;;25.30;99.90;;;;;;5096122;28;20044;-78
2023/09/04 12:31:09;;;;;;;0.57;0.57;;;25.30;99.90;;;;;;5096237;28;20046;-78
2023/09/04 12:33:41;;;;;;;0.20;0.20;;;25.30;99.90;;;;;;5096237;28;20048;-78
2023/09/04 12:36:09;;;;;;;0.30;0.30;;;25.30;99.90;;;;;;5095812;28;20032;-78
2023/09/04 12:38:36;;;;;;;0.30;0.30;;;25.30;99.90;;;;;;5094839;28;20039;-78
2023/09/04 12:41:03;;;;;;;0.20;0.20;;;25.30;99.90;;;;;;5095952;28;20482;-78
2023/09/04 12:43:28;;;;;;;;;;;25.20;99.90;;;;;;5096262;28;20051;-78
2023/09/04 12:45:54;;;;;;;0.20;0.20;;;25.30;99.90;;;;;;5095802;28;20336;-78